Time;durP1;ratioP1;P1;durP2;ratioP2;P2;SDS_P1;SDS_P2;PMS_P1;PMS_P2;Temp;Humidity;BMP_temperature;BMP_pressure;BME280_temperature;BME280_humidity;BME280_pressure;Samples;Min_cycle;Max_cycle;Signal;HPM_P1;HPM_P2
2023/01/22 00:00:09;;;;;;;221.25;98.75;;;;;;;;;;1029721;28;20019;-73
2023/01/22 00:00:39;;;;;;;210.45;99.15;;;;;;;;;;1030579;28;20031;-73
2023/01/22 00:01:11;;;;;;;221.27;97.00;;;;;;;;;;1029143;28;20032;-74
2023/01/22 00:01:42;;;;;;;184.55;88.18;;;;;;;;;;1029628;28;20394;-73
2023/01/22 00:02:12;;;;;;;196.60;94.25;;;;;;;;;;1028616;28;20023;-73
2023/01/22 00:02:43;;;;;;;210.95;95.57;;;;;;;;;;1026838;28;20431;-73
2023/01/22 00:03:13;;;;;;;191.23;93.35;;;;;;;;;;1032889;28;20012;-74
2023/01/22 00:03:44;;;;;;;217.20;96.75;;;;;;;;;;1033650;28;20055;-74
2023/01/22 00:04:15;;;;;;;210.48;94.10;;;;;;;;;;1033619;28;20503;-74
2023/01/22 00:04:45;;;;;;;198.43;89.07;;;;;;;;;;1037791;28;20486;-74
2023/01/22 00:05:16;;;;;;;195.30;95.13;;;;;;;;;;1033365;28;20127;-73
2023/01/22 00:05:49;;;;;;;193.63;92.05;;;;;;;;;;1032627;28;20729;-74
2023/01/22 00:06:20;;;;;;;195.10;94.22;;;;;;;;;;1033553;28;20032;-73
2023/01/22 00:06:50;;;;;;;178.82;87.45;;;;;;;;;;1032611;28;20045;-74
2023/01/22 00:07:21;;;;;;;205.40;93.95;;;;;;;;;;1030608;28;20029;-74
2023/01/22 00:07:51;;;;;;;188.57;91.03;;;;;;;;;;1033679;28;20025;-73
2023/01/22 00:08:22;;;;;;;197.70;94.07;;;;;;;;;;1032839;28;20029;-73
2023/01/22 00:08:53;;;;;;;207.15;98.07;;;;;;;;;;1033737;28;20111;-73
2023/01/22 00:09:23;;;;;;;202.25;100.10;;;;;;;;;;1033562;28;20216;-74
2023/01/22 00:09:54;;;;;;;199.63;92.60;;;;;;;;;;1032906;28;20034;-74
2023/01/22 00:10:24;;;;;;;206.88;94.70;;;;;;;;;;1034676;28;20024;-74
2023/01/22 00:10:55;;;;;;;217.27;97.97;;;;;;;;;;1033261;28;20024;-73
2023/01/22 00:11:25;;;;;;;196.48;94.88;;;;;;;;;;1033755;28;20025;-73
2023/01/22 00:11:56;;;;;;;206.45;98.30;;;;;;;;;;1033147;28;20508;-74
2023/01/22 00:12:28;;;;;;;213.68;97.28;;;;;;;;;;1033513;28;20021;-74
2023/01/22 00:12:58;;;;;;;202.98;96.28;;;;;;;;;;1033061;28;20623;-73
2023/01/22 00:13:29;;;;;;;216.43;99.13;;;;;;;;;;1033457;28;20090;-73
2023/01/22 00:14:00;;;;;;;192.30;93.18;;;;;;;;;;1033234;28;20072;-73
2023/01/22 00:14:30;;;;;;;227.40;106.38;;;;;;;;;;1032521;28;22074;-73
2023/01/22 00:15:01;;;;;;;214.32;105.60;;;;;;;;;;1033137;28;20025;-74
2023/01/22 00:15:31;;;;;;;224.40;107.00;;;;;;;;;;1031704;28;20025;-74
2023/01/22 00:16:02;;;;;;;241.93;109.45;;;;;;;;;;1033601;28;20067;-73
2023/01/22 00:16:33;;;;;;;232.15;105.50;;;;;;;;;;1032873;28;20115;-74
2023/01/22 00:17:03;;;;;;;225.57;103.30;;;;;;;;;;1033147;28;20021;-73
2023/01/22 00:17:34;;;;;;;232.63;103.57;;;;;;;;;;1033407;28;20119;-73
2023/01/22 00:18:04;;;;;;;245.32;109.60;;;;;;;;;;1032825;28;20401;-73
2023/01/22 00:18:35;;;;;;;215.95;105.80;;;;;;;;;;1032848;28;20017;-74
2023/01/22 00:19:05;;;;;;;224.82;107.82;;;;;;;;;;1033984;28;20469;-74
2023/01/22 00:19:36;;;;;;;236.50;109.88;;;;;;;;;;1033069;28;20372;-74
2023/01/22 00:20:07;;;;;;;241.63;107.47;;;;;;;;;;1032709;28;20069;-73
2023/01/22 00:20:37;;;;;;;231.25;107.53;;;;;;;;;;1029909;28;20420;-73
2023/01/22 00:21:08;;;;;;;218.35;107.53;;;;;;;;;;1035498;28;20049;-74
2023/01/22 00:21:39;;;;;;;225.15;106.95;;;;;;;;;;1033642;28;20082;-73
2023/01/22 00:22:10;;;;;;;219.20;106.13;;;;;;;;;;1033232;28;20473;-73
2023/01/22 00:22:40;;;;;;;244.65;111.95;;;;;;;;;;1033570;28;20021;-73
2023/01/22 00:23:11;;;;;;;260.95;111.60;;;;;;;;;;1032825;28;20500;-73
2023/01/22 00:23:41;;;;;;;219.82;107.50;;;;;;;;;;1032979;28;20029;-74
2023/01/22 00:24:12;;;;;;;260.88;109.68;;;;;;;;;;1033022;28;20427;-73
2023/01/22 00:24:43;;;;;;;248.02;113.78;;;;;;;;;;1035560;28;20035;-73
2023/01/22 00:25:13;;;;;;;235.80;104.00;;;;;;;;;;1033585;28;20025;-74
2023/01/22 00:25:44;;;;;;;243.35;110.00;;;;;;;;;;1032916;28;20483;-73
2023/01/22 00:26:15;;;;;;;242.43;112.35;;;;;;;;;;1032448;28;20034;-73
2023/01/22 00:26:46;;;;;;;245.75;107.70;;;;;;;;;;1032030;28;20017;-74
2023/01/22 00:27:16;;;;;;;257.13;111.53;;;;;;;;;;1027621;28;20025;-74
2023/01/22 00:27:47;;;;;;;239.95;111.30;;;;;;;;;;1027741;28;20037;-74
2023/01/22 00:28:17;;;;;;;253.73;113.85;;;;;;;;;;1033111;28;20021;-74
2023/01/22 00:28:48;;;;;;;257.23;112.72;;;;;;;;;;1033344;28;20021;-74
2023/01/22 00:29:18;;;;;;;260.17;118.68;;;;;;;;;;1030912;28;20491;-73
2023/01/22 00:29:49;;;;;;;247.57;114.57;;;;;;;;;;1027663;28;20035;-74
2023/01/22 00:30:19;;;;;;;270.15;119.90;;;;;;;;;;1033554;28;20365;-73
2023/01/22 00:30:55;;;;;;;268.05;114.22;;;;;;;;;;1032786;28;20035;-73
2023/01/22 00:31:26;;;;;;;262.00;110.78;;;;;;;;;;1033032;28;20111;-73
2023/01/22 00:31:56;;;;;;;285.88;120.13;;;;;;;;;;1024219;28;20027;-73
2023/01/22 00:32:27;;;;;;;256.88;116.97;;;;;;;;;;1032772;28;20420;-74
2023/01/22 00:32:57;;;;;;;257.80;115.97;;;;;;;;;;1035016;28;20088;-74
2023/01/22 00:33:28;;;;;;;257.45;121.75;;;;;;;;;;1032969;28;20565;-73
2023/01/22 00:33:59;;;;;;;269.05;122.47;;;;;;;;;;1033827;28;20027;-73
2023/01/22 00:34:29;;;;;;;261.15;122.57;;;;;;;;;;1032803;28;20398;-73
2023/01/22 00:35:00;;;;;;;246.18;120.40;;;;;;;;;;1026480;28;20019;-74
2023/01/22 00:35:32;;;;;;;265.08;120.53;;;;;;;;;;1032464;28;20436;-73
2023/01/22 00:36:06;;;;;;;255.52;117.72;;;;;;;;;;1033547;28;20019;-73
2023/01/22 00:36:39;;;;;;;289.65;128.05;;;;;;;;;;1032550;28;20027;-73
2023/01/22 00:37:10;;;;;;;268.83;124.82;;;;;;;;;;1033991;28;20023;-73
2023/01/22 00:37:40;;;;;;;288.45;120.93;;;;;;;;;;1033775;28;20036;-73
2023/01/22 00:38:11;;;;;;;261.35;123.78;;;;;;;;;;1033044;28;20047;-73
2023/01/22 00:38:42;;;;;;;260.05;121.95;;;;;;;;;;1033172;28;20108;-73
2023/01/22 00:39:12;;;;;;;272.80;122.65;;;;;;;;;;1033131;28;20024;-73
2023/01/22 00:39:43;;;;;;;272.13;122.18;;;;;;;;;;1032528;28;20021;-73
2023/01/22 00:40:14;;;;;;;252.68;119.40;;;;;;;;;;1030940;28;20022;-74
2023/01/22 00:40:44;;;;;;;281.75;123.78;;;;;;;;;;1031424;28;20072;-73
2023/01/22 00:41:15;;;;;;;274.20;119.45;;;;;;;;;;1034583;28;20025;-73
2023/01/22 00:41:46;;;;;;;258.38;118.50;;;;;;;;;;1033469;28;20078;-73
2023/01/22 00:42:16;;;;;;;280.65;121.15;;;;;;;;;;1033030;28;20026;-73
2023/01/22 00:42:47;;;;;;;252.48;124.38;;;;;;;;;;1033836;28;20032;-73
2023/01/22 00:43:17;;;;;;;263.10;119.80;;;;;;;;;;1033015;28;20027;-73
2023/01/22 00:43:48;;;;;;;258.55;116.05;;;;;;;;;;1032672;28;20021;-74
2023/01/22 00:44:18;;;;;;;265.13;114.15;;;;;;;;;;1032044;28;20487;-74
2023/01/22 00:44:49;;;;;;;238.60;111.32;;;;;;;;;;1033234;28;20025;-73
2023/01/22 00:45:19;;;;;;;256.65;118.32;;;;;;;;;;1034451;28;20521;-73
2023/01/22 00:45:50;;;;;;;256.73;120.45;;;;;;;;;;1033564;28;20093;-73
2023/01/22 00:46:20;;;;;;;272.13;120.72;;;;;;;;;;1033550;28;20454;-73
2023/01/22 00:46:51;;;;;;;262.48;116.72;;;;;;;;;;1034205;28;20031;-73
2023/01/22 00:47:22;;;;;;;265.83;117.70;;;;;;;;;;1033558;28;20110;-73
2023/01/22 00:47:52;;;;;;;257.17;116.20;;;;;;;;;;1033958;28;20525;-74
2023/01/22 00:48:23;;;;;;;260.98;121.82;;;;;;;;;;1038383;28;20033;-74
2023/01/22 00:48:53;;;;;;;252.73;119.13;;;;;;;;;;1037744;28;20107;-74
2023/01/22 00:49:24;;;;;;;252.50;115.55;;;;;;;;;;1038454;28;20032;-74
2023/01/22 00:49:54;;;;;;;261.00;116.82;;;;;;;;;;1037940;28;20027;-74
2023/01/22 00:50:25;;;;;;;254.88;118.72;;;;;;;;;;1034335;28;20027;-74
2023/01/22 00:50:55;;;;;;;255.60;120.28;;;;;;;;;;1027541;28;20027;-73
2023/01/22 00:51:26;;;;;;;273.58;121.40;;;;;;;;;;1037251;28;20025;-74
2023/01/22 00:51:56;;;;;;;281.45;127.63;;;;;;;;;;1034108;28;20034;-73
2023/01/22 00:52:27;;;;;;;280.85;129.05;;;;;;;;;;1032888;28;20029;-73
2023/01/22 00:52:57;;;;;;;296.20;129.55;;;;;;;;;;1034376;28;20079;-74
2023/01/22 00:53:28;;;;;;;305.42;133.30;;;;;;;;;;1034002;28;20023;-73
2023/01/22 00:53:58;;;;;;;272.70;121.82;;;;;;;;;;1034204;28;20028;-73
2023/01/22 00:54:29;;;;;;;299.85;128.60;;;;;;;;;;1032580;28;20135;-73
2023/01/22 00:55:00;;;;;;;299.08;135.95;;;;;;;;;;1035425;28;20116;-73
2023/01/22 00:55:30;;;;;;;312.58;131.70;;;;;;;;;;1033750;28;20027;-74
2023/01/22 00:56:01;;;;;;;331.00;143.77;;;;;;;;;;1033835;28;20027;-74
2023/01/22 00:56:31;;;;;;;310.05;134.60;;;;;;;;;;1030737;28;20029;-73
2023/01/22 00:57:02;;;;;;;324.90;142.48;;;;;;;;;;1034612;28;20050;-74
2023/01/22 00:57:33;;;;;;;323.85;145.18;;;;;;;;;;1037221;28;20126;-74
2023/01/22 00:58:03;;;;;;;332.48;145.32;;;;;;;;;;1030618;28;20029;-74
2023/01/22 00:58:34;;;;;;;348.95;155.02;;;;;;;;;;1034254;28;20101;-73
2023/01/22 00:59:09;;;;;;;314.33;142.98;;;;;;;;;;1034401;28;20050;-74
2023/01/22 00:59:39;;;;;;;349.77;148.68;;;;;;;;;;1028233;28;20085;-74
2023/01/22 01:00:13;;;;;;;333.15;148.38;;;;;;;;;;1033714;28;20083;-73
2023/01/22 01:00:44;;;;;;;341.77;142.45;;;;;;;;;;1033881;28;20468;-73
2023/01/22 01:01:14;;;;;;;328.13;147.93;;;;;;;;;;1034328;28;20024;-73
2023/01/22 01:01:45;;;;;;;357.67;153.68;;;;;;;;;;1033842;28;20023;-74
2023/01/22 01:02:15;;;;;;;332.60;154.65;;;;;;;;;;1033745;28;20023;-74
2023/01/22 01:03:36;;;;;;;370.02;166.38;;;;;;;;;;1032771;28;20392;-74
2023/01/22 01:04:06;;;;;;;382.83;167.30;;;;;;;;;;1033358;28;20021;-73
2023/01/22 01:04:37;;;;;;;360.30;158.98;;;;;;;;;;1033562;28;20020;-74
2023/01/22 01:05:08;;;;;;;356.90;158.40;;;;;;;;;;1031271;28;20046;-74
2023/01/22 01:05:38;;;;;;;356.13;154.60;;;;;;;;;;1033790;28;20025;-73
2023/01/22 01:06:13;;;;;;;362.15;157.00;;;;;;;;;;1034350;28;20040;-74
2023/01/22 01:06:44;;;;;;;372.25;157.30;;;;;;;;;;1032869;28;20023;-74
2023/01/22 01:07:14;;;;;;;339.80;150.15;;;;;;;;;;1029583;28;20020;-73
2023/01/22 01:07:45;;;;;;;362.00;158.20;;;;;;;;;;1034284;28;20028;-74
2023/01/22 01:08:15;;;;;;;390.65;169.27;;;;;;;;;;1033150;28;20108;-74
2023/01/22 01:08:46;;;;;;;388.63;159.23;;;;;;;;;;1031827;28;20187;-74
2023/01/22 01:09:17;;;;;;;373.27;165.32;;;;;;;;;;1030085;28;20396;-74
2023/01/22 01:09:47;;;;;;;372.92;167.88;;;;;;;;;;1031337;28;20469;-74
2023/01/22 01:10:18;;;;;;;356.48;158.38;;;;;;;;;;1044041;28;20025;-73
2023/01/22 01:10:52;;;;;;;353.70;161.48;;;;;;;;;;1037285;28;20114;-74
2023/01/22 01:11:24;;;;;;;339.42;154.90;;;;;;;;;;1033913;28;20078;-74
2023/01/22 01:11:54;;;;;;;352.40;161.38;;;;;;;;;;1034202;28;20030;-74
2023/01/22 01:12:25;;;;;;;371.13;159.48;;;;;;;;;;1033548;28;20421;-74
2023/01/22 01:12:55;;;;;;;336.77;157.43;;;;;;;;;;1034359;28;20046;-73
2023/01/22 01:13:26;;;;;;;368.90;156.40;;;;;;;;;;1034129;28;20487;-73
2023/01/22 01:13:57;;;;;;;375.05;160.75;;;;;;;;;;1033237;28;20070;-73
2023/01/22 01:14:27;;;;;;;369.38;162.15;;;;;;;;;;1034405;28;20027;-74
2023/01/22 01:14:58;;;;;;;320.98;155.95;;;;;;;;;;1033738;28;20041;-74
2023/01/22 01:15:28;;;;;;;353.08;161.05;;;;;;;;;;1033198;28;20096;-74
2023/01/22 01:16:00;;;;;;;347.13;156.48;;;;;;;;;;1033437;28;20023;-73
2023/01/22 01:16:31;;;;;;;374.80;159.30;;;;;;;;;;1033688;28;20402;-73
2023/01/22 01:17:02;;;;;;;375.88;162.60;;;;;;;;;;1031935;28;20052;-74
2023/01/22 01:17:33;;;;;;;395.02;169.80;;;;;;;;;;1034725;28;20015;-74
2023/01/22 01:18:04;;;;;;;376.30;164.85;;;;;;;;;;1032353;28;20021;-73
2023/01/22 01:18:35;;;;;;;373.98;163.50;;;;;;;;;;1034115;28;20021;-74
2023/01/22 01:19:08;;;;;;;395.13;169.75;;;;;;;;;;1033877;28;20166;-74
2023/01/22 01:19:39;;;;;;;373.58;165.77;;;;;;;;;;1033651;28;20465;-74
2023/01/22 01:20:10;;;;;;;367.50;161.90;;;;;;;;;;1034346;28;20017;-73
2023/01/22 01:20:40;;;;;;;371.58;170.95;;;;;;;;;;1033766;28;20230;-73
2023/01/22 01:21:11;;;;;;;383.15;168.40;;;;;;;;;;1033711;28;20013;-73
2023/01/22 01:21:42;;;;;;;373.63;165.45;;;;;;;;;;1033742;28;20038;-74
2023/01/22 01:22:13;;;;;;;372.98;169.20;;;;;;;;;;1028539;28;20031;-74
2023/01/22 01:22:43;;;;;;;404.33;180.93;;;;;;;;;;1033828;28;20111;-73
2023/01/22 01:23:14;;;;;;;397.95;168.55;;;;;;;;;;1033120;28;20072;-73
2023/01/22 01:23:45;;;;;;;382.58;166.48;;;;;;;;;;1033932;28;20025;-74
2023/01/22 01:24:16;;;;;;;388.52;175.20;;;;;;;;;;1030648;28;20485;-74
2023/01/22 01:24:46;;;;;;;378.58;169.63;;;;;;;;;;1032437;28;20036;-73
2023/01/22 01:25:17;;;;;;;406.88;164.70;;;;;;;;;;1034283;28;20052;-74
2023/01/22 01:25:47;;;;;;;397.33;169.88;;;;;;;;;;1034487;28;20028;-74
2023/01/22 01:26:18;;;;;;;404.70;173.85;;;;;;;;;;1033431;28;20393;-74
2023/01/22 01:26:48;;;;;;;419.40;178.82;;;;;;;;;;1033809;28;20112;-74
2023/01/22 01:27:19;;;;;;;406.48;176.75;;;;;;;;;;1031654;28;20495;-74
2023/01/22 01:27:49;;;;;;;386.00;176.40;;;;;;;;;;1038658;28;20031;-74
2023/01/22 01:28:20;;;;;;;379.85;172.48;;;;;;;;;;1033640;28;20036;-73
2023/01/22 01:28:53;;;;;;;363.27;167.65;;;;;;;;;;1034277;28;20412;-73
2023/01/22 01:29:24;;;;;;;393.95;174.73;;;;;;;;;;1033378;28;20050;-74
2023/01/22 01:29:54;;;;;;;380.45;162.90;;;;;;;;;;1033675;28;20111;-73
2023/01/22 01:30:25;;;;;;;378.00;174.25;;;;;;;;;;1033345;28;20021;-73
2023/01/22 01:31:00;;;;;;;376.30;164.63;;;;;;;;;;1034218;28;20448;-73
2023/01/22 01:31:31;;;;;;;383.65;163.18;;;;;;;;;;1033278;28;20020;-74
2023/01/22 01:32:01;;;;;;;379.88;166.73;;;;;;;;;;1033907;28;20119;-74
2023/01/22 01:32:32;;;;;;;369.60;158.63;;;;;;;;;;1033433;28;20031;-73
2023/01/22 01:33:02;;;;;;;373.35;161.82;;;;;;;;;;1033800;28;20464;-73
2023/01/22 01:33:33;;;;;;;364.42;166.10;;;;;;;;;;1034253;28;20034;-74
2023/01/22 01:34:04;;;;;;;343.45;152.68;;;;;;;;;;1036759;28;20475;-73
2023/01/22 01:34:34;;;;;;;344.33;154.43;;;;;;;;;;1034270;28;20025;-73
2023/01/22 01:35:05;;;;;;;357.27;154.88;;;;;;;;;;1033705;28;20027;-74
2023/01/22 01:35:35;;;;;;;337.63;152.02;;;;;;;;;;1033827;28;20025;-74
2023/01/22 01:36:08;;;;;;;357.98;156.45;;;;;;;;;;1033305;28;20031;-74
2023/01/22 01:36:39;;;;;;;358.48;151.10;;;;;;;;;;1033504;28;20538;-74
2023/01/22 01:37:09;;;;;;;362.52;152.02;;;;;;;;;;1035410;28;20107;-74
2023/01/22 01:37:40;;;;;;;376.88;158.85;;;;;;;;;;1032820;28;20066;-74
2023/01/22 01:38:10;;;;;;;362.98;160.50;;;;;;;;;;1034063;28;20034;-73
2023/01/22 01:38:41;;;;;;;361.75;158.32;;;;;;;;;;1033530;28;20035;-73
2023/01/22 01:39:12;;;;;;;359.17;159.02;;;;;;;;;;1033733;28;20110;-73
2023/01/22 01:39:42;;;;;;;338.10;154.30;;;;;;;;;;1033140;28;20080;-74
2023/01/22 01:40:13;;;;;;;376.63;166.98;;;;;;;;;;1033661;28;20027;-73
2023/01/22 01:40:43;;;;;;;371.40;172.57;;;;;;;;;;1034456;28;20085;-73
2023/01/22 01:41:15;;;;;;;378.30;170.90;;;;;;;;;;1033239;28;20390;-74
2023/01/22 01:41:46;;;;;;;351.52;155.98;;;;;;;;;;1034675;28;20025;-73
2023/01/22 01:42:21;;;;;;;375.02;161.23;;;;;;;;;;1031557;28;20085;-73
2023/01/22 01:42:52;;;;;;;372.45;164.45;;;;;;;;;;1029348;28;20485;-73
2023/01/22 01:43:22;;;;;;;352.00;153.63;;;;;;;;;;1035474;28;20028;-74
2023/01/22 01:44:07;;;;;;;368.60;158.25;;;;;;;;;;1033104;28;20029;-74
2023/01/22 01:44:39;;;;;;;376.98;164.93;;;;;;;;;;1033090;28;20424;-73
2023/01/22 01:45:19;;;;;;;350.42;156.18;;;;;;;;;;1033612;28;20056;-73
2023/01/22 01:45:50;;;;;;;362.17;153.95;;;;;;;;;;1029973;28;20093;-73
2023/01/22 01:46:24;;;;;;;367.25;166.77;;;;;;;;;;1035202;28;20034;-73
2023/01/22 01:47:04;;;;;;;380.35;158.88;;;;;;;;;;1028147;28;20031;-73
2023/01/22 01:47:34;;;;;;;330.40;149.52;;;;;;;;;;1026209;28;20594;-73
2023/01/22 01:48:14;;;;;;;363.65;157.15;;;;;;;;;;1029206;28;20029;-74
2023/01/22 01:48:46;;;;;;;336.90;149.90;;;;;;;;;;1031819;28;20030;-73
2023/01/22 01:49:21;;;;;;;349.33;151.02;;;;;;;;;;1033159;28;20407;-74
2023/01/22 01:49:52;;;;;;;362.27;153.50;;;;;;;;;;1029617;28;20373;-73
2023/01/22 01:50:25;;;;;;;346.85;151.63;;;;;;;;;;1031935;28;20079;-73
2023/01/22 01:51:04;;;;;;;333.90;151.32;;;;;;;;;;1031107;28;20035;-74
2023/01/22 01:51:35;;;;;;;363.50;157.00;;;;;;;;;;1027076;28;20482;-73
2023/01/22 01:52:08;;;;;;;345.00;158.75;;;;;;;;;;1033640;28;20339;-73
2023/01/22 01:52:38;;;;;;;360.92;159.63;;;;;;;;;;1032510;28;20059;-73
2023/01/22 01:53:09;;;;;;;364.92;152.02;;;;;;;;;;1033840;28;20023;-74
2023/01/22 01:53:40;;;;;;;339.02;146.85;;;;;;;;;;1035081;28;20033;-74
2023/01/22 01:54:11;;;;;;;357.02;152.23;;;;;;;;;;1033514;28;20028;-74
2023/01/22 01:54:43;;;;;;;353.25;153.57;;;;;;;;;;1033731;28;20503;-74
2023/01/22 01:55:16;;;;;;;336.05;148.15;;;;;;;;;;1032009;28;20108;-74
2023/01/22 01:55:47;;;;;;;339.42;151.43;;;;;;;;;;1033478;28;20059;-74
2023/01/22 01:56:20;;;;;;;392.73;161.77;;;;;;;;;;1033726;28;20438;-74
2023/01/22 01:56:53;;;;;;;373.08;157.32;;;;;;;;;;1033218;28;20020;-74
2023/01/22 01:57:26;;;;;;;332.02;150.48;;;;;;;;;;1034191;28;20078;-73
2023/01/22 01:57:59;;;;;;;379.50;153.90;;;;;;;;;;1030541;28;20092;-74
2023/01/22 01:58:32;;;;;;;339.25;152.60;;;;;;;;;;1034025;28;20068;-74
2023/01/22 01:59:06;;;;;;;370.10;161.35;;;;;;;;;;1033615;28;20061;-73
2023/01/22 01:59:37;;;;;;;373.45;156.35;;;;;;;;;;1033256;28;20025;-73
2023/01/22 02:00:11;;;;;;;355.25;162.82;;;;;;;;;;1033945;28;20033;-73
2023/01/22 02:00:42;;;;;;;339.63;149.32;;;;;;;;;;1031995;28;20020;-73
2023/01/22 02:01:15;;;;;;;348.75;155.90;;;;;;;;;;1033317;28;20017;-74
2023/01/22 02:01:48;;;;;;;351.75;152.48;;;;;;;;;;1034046;28;20102;-73
2023/01/22 02:02:19;;;;;;;368.02;161.13;;;;;;;;;;1033469;28;20055;-73
2023/01/22 02:02:49;;;;;;;366.75;165.15;;;;;;;;;;1031964;28;20441;-73
2023/01/22 02:03:20;;;;;;;355.88;159.52;;;;;;;;;;1037682;28;20483;-73
2023/01/22 02:03:51;;;;;;;356.88;155.23;;;;;;;;;;1033230;28;20027;-73
2023/01/22 02:04:22;;;;;;;359.63;158.95;;;;;;;;;;1034064;28;20034;-73
2023/01/22 02:04:53;;;;;;;369.35;157.80;;;;;;;;;;1033673;28;20023;-74
2023/01/22 02:05:24;;;;;;;339.88;152.50;;;;;;;;;;1033480;28;20021;-73
2023/01/22 02:05:55;;;;;;;362.42;161.68;;;;;;;;;;1034301;28;20543;-74
2023/01/22 02:06:25;;;;;;;366.67;169.00;;;;;;;;;;1032983;28;20017;-74
2023/01/22 02:06:56;;;;;;;390.58;170.57;;;;;;;;;;1032246;28;20033;-74
2023/01/22 02:07:26;;;;;;;386.23;160.68;;;;;;;;;;1033942;28;20081;-74
2023/01/22 02:07:57;;;;;;;356.45;157.00;;;;;;;;;;1035576;28;20023;-74
2023/01/22 02:08:28;;;;;;;377.50;167.00;;;;;;;;;;1033463;28;20114;-74
2023/01/22 02:08:59;;;;;;;381.83;168.15;;;;;;;;;;1033394;28;20025;-74
2023/01/22 02:09:29;;;;;;;364.65;162.05;;;;;;;;;;1035558;28;20606;-73
2023/01/22 02:10:03;;;;;;;366.20;165.32;;;;;;;;;;1035520;28;20108;-74
2023/01/22 02:10:35;;;;;;;374.92;159.88;;;;;;;;;;1035221;28;20030;-73
2023/01/22 02:11:05;;;;;;;366.98;162.98;;;;;;;;;;1033810;28;20031;-73
2023/01/22 02:11:36;;;;;;;369.80;167.57;;;;;;;;;;1033017;28;20127;-74
2023/01/22 02:12:07;;;;;;;351.25;163.27;;;;;;;;;;1033598;28;20502;-74
2023/01/22 02:12:38;;;;;;;374.45;162.38;;;;;;;;;;1034133;28;20083;-73
2023/01/22 02:13:16;;;;;;;349.75;163.18;;;;;;;;;;1033330;28;20027;-73
2023/01/22 02:13:49;;;;;;;370.25;163.40;;;;;;;;;;1034046;28;20633;-73
2023/01/22 02:14:21;;;;;;;358.27;162.35;;;;;;;;;;1032472;28;20017;-73
2023/01/22 02:14:52;;;;;;;371.42;164.98;;;;;;;;;;1033638;28;20058;-74
2023/01/22 02:15:22;;;;;;;389.35;174.00;;;;;;;;;;1034070;28;20028;-74
2023/01/22 02:15:53;;;;;;;369.38;160.95;;;;;;;;;;1033524;28;20029;-74
2023/01/22 02:16:24;;;;;;;354.77;155.10;;;;;;;;;;1033553;28;20039;-74
2023/01/22 02:17:01;;;;;;;376.33;166.40;;;;;;;;;;1034341;28;20025;-74
2023/01/22 02:17:31;;;;;;;364.77;157.60;;;;;;;;;;1033446;28;20392;-73
2023/01/22 02:18:02;;;;;;;347.23;161.98;;;;;;;;;;1036946;28;20113;-73
2023/01/22 02:18:32;;;;;;;373.80;166.38;;;;;;;;;;1033948;28;20029;-74
2023/01/22 02:19:03;;;;;;;338.90;153.93;;;;;;;;;;1033714;28;20020;-74
2023/01/22 02:19:33;;;;;;;352.48;153.73;;;;;;;;;;1032965;28;20035;-74
2023/01/22 02:20:04;;;;;;;351.83;147.57;;;;;;;;;;1033320;28;20036;-74
2023/01/22 02:20:36;;;;;;;359.67;160.73;;;;;;;;;;1033936;28;20025;-73
2023/01/22 02:21:25;;;;;;;353.65;153.35;;;;;;;;;;1033497;28;20434;-74
2023/01/22 02:21:56;;;;;;;385.05;165.32;;;;;;;;;;1033343;28;20416;-74
2023/01/22 02:22:27;;;;;;;354.17;162.65;;;;;;;;;;1034337;28;20023;-73
2023/01/22 02:22:58;;;;;;;357.80;153.93;;;;;;;;;;1033181;28;20118;-74
2023/01/22 02:23:30;;;;;;;368.63;154.70;;;;;;;;;;1033371;28;20384;-74
2023/01/22 02:24:01;;;;;;;345.25;152.48;;;;;;;;;;1030924;28;20022;-73
2023/01/22 02:24:32;;;;;;;381.00;153.88;;;;;;;;;;1026850;28;20032;-73
2023/01/22 02:25:03;;;;;;;354.85;164.13;;;;;;;;;;1031172;28;20034;-73
2023/01/22 02:25:33;;;;;;;368.58;161.70;;;;;;;;;;1023901;28;20078;-74
2023/01/22 02:26:04;;;;;;;360.13;150.45;;;;;;;;;;1028140;28;20559;-73
2023/01/22 02:26:35;;;;;;;319.63;147.55;;;;;;;;;;1037770;28;20359;-73
2023/01/22 02:27:05;;;;;;;371.73;157.40;;;;;;;;;;1037060;28;20026;-74
2023/01/22 02:27:37;;;;;;;338.48;155.70;;;;;;;;;;1039820;28;20476;-73
2023/01/22 02:28:07;;;;;;;373.05;163.20;;;;;;;;;;1033038;28;20558;-73
2023/01/22 02:28:38;;;;;;;337.60;154.30;;;;;;;;;;1032705;28;20020;-74
2023/01/22 02:29:10;;;;;;;362.60;155.85;;;;;;;;;;1032314;28;20033;-73
2023/01/22 02:29:40;;;;;;;313.38;143.52;;;;;;;;;;1036547;28;20020;-74
2023/01/22 02:30:11;;;;;;;357.75;154.30;;;;;;;;;;1033108;28;20024;-74
2023/01/22 02:30:42;;;;;;;350.50;155.60;;;;;;;;;;1031657;28;20023;-73
2023/01/22 02:31:13;;;;;;;360.25;163.98;;;;;;;;;;1033525;28;20030;-73
2023/01/22 02:31:43;;;;;;;343.17;150.55;;;;;;;;;;1033188;28;20080;-73
2023/01/22 02:32:14;;;;;;;341.55;150.23;;;;;;;;;;1026509;28;20027;-74
2023/01/22 02:32:44;;;;;;;338.67;147.73;;;;;;;;;;1033559;28;20017;-74
2023/01/22 02:33:15;;;;;;;366.15;160.45;;;;;;;;;;1032041;28;20021;-74
2023/01/22 02:33:45;;;;;;;361.75;154.10;;;;;;;;;;1028440;28;20023;-73
2023/01/22 02:34:16;;;;;;;341.98;153.35;;;;;;;;;;1033594;28;20532;-74
2023/01/22 02:34:46;;;;;;;321.60;145.40;;;;;;;;;;1033274;28;20021;-74
2023/01/22 02:35:17;;;;;;;314.33;140.15;;;;;;;;;;1033842;28;20123;-74
2023/01/22 02:35:48;;;;;;;286.92;130.93;;;;;;;;;;1028920;28;20531;-74
2023/01/22 02:36:20;;;;;;;303.73;139.85;;;;;;;;;;1033396;28;20060;-74
2023/01/22 02:36:50;;;;;;;303.30;138.70;;;;;;;;;;1026188;28;20113;-74
2023/01/22 02:37:21;;;;;;;302.65;133.02;;;;;;;;;;1030638;28;20054;-74
2023/01/22 02:37:51;;;;;;;250.07;115.85;;;;;;;;;;1031749;28;20023;-73
2023/01/22 02:38:22;;;;;;;289.17;127.38;;;;;;;;;;1030952;28;20023;-73
2023/01/22 02:38:52;;;;;;;277.63;126.95;;;;;;;;;;1035731;28;20032;-74
2023/01/22 02:39:23;;;;;;;275.30;125.63;;;;;;;;;;1032311;28;20112;-73
2023/01/22 02:39:53;;;;;;;280.80;128.32;;;;;;;;;;1035648;28;20019;-73
2023/01/22 02:40:24;;;;;;;285.45;129.02;;;;;;;;;;1037844;28;20409;-73
2023/01/22 02:40:54;;;;;;;299.40;127.15;;;;;;;;;;1033760;28;20434;-73
2023/01/22 02:41:26;;;;;;;288.90;129.25;;;;;;;;;;1033152;28;20059;-73
2023/01/22 02:41:57;;;;;;;282.13;122.95;;;;;;;;;;1033519;28;20033;-73
2023/01/22 02:42:27;;;;;;;286.02;125.57;;;;;;;;;;1028058;28;20038;-74
2023/01/22 02:42:58;;;;;;;265.50;122.07;;;;;;;;;;1033240;28;20107;-74
2023/01/22 02:43:28;;;;;;;245.65;115.55;;;;;;;;;;1027268;28;20093;-73
2023/01/22 02:43:59;;;;;;;249.77;114.72;;;;;;;;;;1033884;28;20964;-74
2023/01/22 02:44:29;;;;;;;250.82;114.53;;;;;;;;;;1033273;28;20017;-74
2023/01/22 02:45:00;;;;;;;256.15;110.35;;;;;;;;;;1037093;28;20025;-74
2023/01/22 02:45:30;;;;;;;264.65;111.07;;;;;;;;;;1033338;28;20069;-74
2023/01/22 02:46:01;;;;;;;264.92;115.05;;;;;;;;;;1033518;28;20048;-74
2023/01/22 02:46:32;;;;;;;267.65;116.03;;;;;;;;;;1035486;28;20395;-74
2023/01/22 02:47:02;;;;;;;259.67;115.63;;;;;;;;;;1035517;28;20044;-74
2023/01/22 02:47:36;;;;;;;253.02;117.88;;;;;;;;;;1033603;28;20395;-74
2023/01/22 02:48:07;;;;;;;260.75;115.10;;;;;;;;;;1033346;28;20139;-73
2023/01/22 02:48:37;;;;;;;259.15;113.63;;;;;;;;;;1034191;28;20039;-73
2023/01/22 02:49:07;;;;;;;227.20;112.10;;;;;;;;;;1034590;28;20042;-73
2023/01/22 02:49:38;;;;;;;281.38;122.97;;;;;;;;;;1033348;28;20034;-74
2023/01/22 02:50:09;;;;;;;257.95;118.15;;;;;;;;;;1033395;28;20080;-73
2023/01/22 02:50:39;;;;;;;262.95;120.60;;;;;;;;;;1035380;28;20105;-74
2023/01/22 02:51:10;;;;;;;271.98;119.13;;;;;;;;;;1035161;28;20035;-73
2023/01/22 02:51:41;;;;;;;255.00;115.13;;;;;;;;;;1035587;28;20032;-74
2023/01/22 02:52:11;;;;;;;260.05;122.55;;;;;;;;;;1034052;28;20062;-74
2023/01/22 02:52:42;;;;;;;266.45;122.97;;;;;;;;;;1027786;28;20023;-73
2023/01/22 02:53:12;;;;;;;266.05;118.82;;;;;;;;;;1034128;28;20043;-74
2023/01/22 02:53:42;;;;;;;269.33;121.15;;;;;;;;;;1034635;28;20386;-74
2023/01/22 02:54:13;;;;;;;255.35;114.65;;;;;;;;;;1033770;28;20027;-73
2023/01/22 02:54:43;;;;;;;257.08;121.88;;;;;;;;;;1033479;28;20038;-74
2023/01/22 02:55:14;;;;;;;254.82;117.57;;;;;;;;;;1026364;28;20034;-74
2023/01/22 02:55:45;;;;;;;274.90;123.35;;;;;;;;;;1032687;28;20017;-73
2023/01/22 02:56:16;;;;;;;272.60;122.05;;;;;;;;;;1031957;28;20511;-74
2023/01/22 02:56:47;;;;;;;274.25;122.20;;;;;;;;;;1031691;28;20035;-73
2023/01/22 02:57:17;;;;;;;258.83;115.65;;;;;;;;;;1032496;28;20064;-74